WetterOnline ( https://www.wetteronline.de )

Wetter aktuell Berlin

Aktuelles Wetter: Berlin-Tempelhof (49m)

6-stündlich | Neueste Meldungen
Ortszeit Temperatur Wetter
Fr, 19.04. 8:00 6.1° C leichter Regen
Fr, 19.04. 2:00 6.2° C bewölkt
Do, 18.04. 20:00 10.0° C bedeckt
Do, 18.04. 14:00 8.8° C bedeckt
Do, 18.04. 8:00 4.3° C wolkenlos
Do, 18.04. 2:00 2.0° C wolkenlos
Mi, 17.04. 20:00 7.3° C bewölkt
Mi, 17.04. 14:00 11.2° C leicht bewölkt
Ortszeit Temperatur Wetter
Fr, 19.04. 10:00 5.9° C leichter Regen
Fr, 19.04. 9:50 5.9° C leichter Regen
Fr, 19.04. 9:40 5.8° C leichter Regen
Fr, 19.04. 9:30 5.5° C leichter Regen
Fr, 19.04. 9:20 5.5° C leichter Regen
Fr, 19.04. 9:10 5.7° C leichter Regen
Fr, 19.04. 9:00 6.0° C leichter Regen
Fr, 19.04. 8:30 6.6° C leichter Regen
Fr, 19.04. 8:00 6.1° C leichter Regen
Fr, 19.04. 7:30 5.8° C Regen
Fr, 19.04. 7:00 6.0° C bewölkt
Ortszeit Relative Feuchte Sichtweite
Fr, 19.04. 8:00 85% 30 km
Fr, 19.04. 2:00 80% 65 km
Do, 18.04. 20:00 41% >70 km
Do, 18.04. 14:00 54% 60 km
Do, 18.04. 8:00 79% 30 km
Do, 18.04. 2:00 87% 60 km
Mi, 17.04. 20:00 70% 60 km
Mi, 17.04. 14:00 49% 60 km
Ortszeit Relative Feuchte Sichtweite
Fr, 19.04. 10:00 82% 28 km
Fr, 19.04. 9:50 82% -
Fr, 19.04. 9:40 82% -
Fr, 19.04. 9:30 82% 19 km
Fr, 19.04. 9:20 82% -
Fr, 19.04. 9:10 80% -
Fr, 19.04. 9:00 79% 25 km
Fr, 19.04. 8:30 78% 30 km
Fr, 19.04. 8:00 85% 30 km
Fr, 19.04. 7:30 82% 11 km
Fr, 19.04. 7:00 78% 50 km
Ortszeit Niederschlagsmenge Niederschlagsart
Fr, 19.04. 8:00 0.2 l/m2 in 12 Std. Regen
Fr, 19.04. 2:00 0.1 l/m2 in 6 Std. Regen
Do, 18.04. 20:00 0.0 l/m2 in 12 Std. -
Do, 18.04. 14:00 0.0 l/m2 in 6 Std. -
Do, 18.04. 8:00 0.0 l/m2 in 12 Std. -
Do, 18.04. 2:00 0.0 l/m2 in 6 Std. -
Mi, 17.04. 20:00 0.1 l/m2 in 12 Std. Regen
Mi, 17.04. 14:00 0.1 l/m2 in 6 Std. Regen
Ortszeit Niederschlagsmenge Niederschlagsart
Fr, 19.04. 10:00 0.2 l/m2 in 1 Std. Regen
Fr, 19.04. 9:50 keine Meldung -
Fr, 19.04. 9:40 keine Meldung -
Fr, 19.04. 9:30 0.1 l/m2 in 30 Min -
Fr, 19.04. 9:20 keine Meldung -
Fr, 19.04. 9:10 keine Meldung -
Fr, 19.04. 9:00 0.1 l/m2 in 1 Std. Regen
Fr, 19.04. 8:30 <0.05 l/m2 in 30 Min -
Fr, 19.04. 8:00 0.2 l/m2 in 1 Std. Regen
Fr, 19.04. 7:30 0.2 l/m2 in 30 Min -
Fr, 19.04. 7:00 0.0 l/m2 in 1 Std. -
Ortszeit Stärke Spitze Richtung
km/h Bft. km/h Grad Sektor
Fr, 19.04. 8:00 11 2 18 190° S
Fr, 19.04. 2:00 9 2 31 250° W
Do, 18.04. 20:00 14 3 40 270° W
Do, 18.04. 14:00 17 3 30 300° NW
Do, 18.04. 8:00 4 1 14 350° N
Do, 18.04. 2:00 7 2 28 10° N
Mi, 17.04. 20:00 14 3 36 30° NO
Mi, 17.04. 14:00 9 2 24 290° W
Ortszeit Stärke Spitze Richtung
km/h Bft. km/h Grad Sektor
Fr, 19.04. 10:00 18 3 36 210° SW
Fr, 19.04. 9:50 18 3 - 210° SW
Fr, 19.04. 9:40 17 3 - 210° SW
Fr, 19.04. 9:30 18 3 36 220° SW
Fr, 19.04. 9:20 18 3 - 220° SW
Fr, 19.04. 9:10 20 4 - 210° SW
Fr, 19.04. 9:00 22 4 36 230° SW
Fr, 19.04. 8:30 18 3 32 220° SW
Fr, 19.04. 8:00 11 2 18 190° S
Fr, 19.04. 7:30 11 2 18 200° S
Fr, 19.04. 7:00 9 2 19 220° SW
Ortszeit Untergrenze Bedeckung Gattung
total tief tief mittel hoch
Fr, 19.04. 8:00 900 m 8/8 8/8 - - -
Fr, 19.04. 2:00 1350 m 8/8 5/8 - - -
Do, 18.04. 20:00 3000 m 8/8 8/8 - - -
Do, 18.04. 14:00 1800 m 8/8 8/8 - - -
Do, 18.04. 8:00 - 0/8 0/8 - - -
Do, 18.04. 2:00 - 0/8 0/8 - - -
Mi, 17.04. 20:00 2100 m 7/8 7/8 - - -
Mi, 17.04. 14:00 1500 m 3/8 1/8 - - -
Ortszeit Bedeckungsgrad in Achtel und Wolkenuntergrenze
Fr, 19.04. 10:00 5(570m) 7(1290m) 8(1470m)
Fr, 19.04. 9:50 5(570m) 7(1290m) 8(1470m)
Fr, 19.04. 9:40 8
Fr, 19.04. 9:30 5(570m) 7(1230m)
Fr, 19.04. 9:20 5(570m) 7(1230m)
Fr, 19.04. 9:10 7
Fr, 19.04. 9:00 6(570m) 7(1110m) 8(1350m)
Fr, 19.04. 8:30 1(690m) 6(1170m) 7(1500m)
Fr, 19.04. 8:00 3(900m) 7(1500m) 8(1800m)
Fr, 19.04. 7:30 1(720m) 6(1230m) 7(1440m)
Fr, 19.04. 7:00 3(1020m) 5(1320m) 7(2700m)
Ortszeit Luftdruck NN (hPa) Tendenz (hPa in 3 Std.)
Fr, 19.04. 8:00 1008 - 2,7
Fr, 19.04. 2:00 1013 - 1,2
Do, 18.04. 20:00 1015 - 0,1
Do, 18.04. 14:00 1016 0,0
Do, 18.04. 8:00 1015 + 1,6
Do, 18.04. 2:00 1012 + 1,5
Mi, 17.04. 20:00 1009 + 1,1
Mi, 17.04. 14:00 1007 - 0,7
Ortszeit Luftdruck NN (hPa) Tendenz (hPa in 3 Std.)
Fr, 19.04. 10:00 1006 - 3,2
Fr, 19.04. 9:50 1006 keine Meldung
Fr, 19.04. 9:40 1006 keine Meldung
Fr, 19.04. 9:30 1007 - 2,8
Fr, 19.04. 9:20 1007 keine Meldung
Fr, 19.04. 9:10 1007 keine Meldung
Fr, 19.04. 9:00 1007 - 2,7
Fr, 19.04. 8:30 1008 - 2,6
Fr, 19.04. 8:00 1008 - 2,7
Fr, 19.04. 7:30 1009 - 2,6
Fr, 19.04. 7:00 1010 - 2,7
Ortszeit Schneehöhe (cm)
Fr, 19.04. 8:00 0
Fr, 19.04. 2:00 0
Do, 18.04. 20:00 0
Do, 18.04. 14:00 0
Do, 18.04. 8:00 0
Do, 18.04. 2:00 0
Mi, 17.04. 20:00 0
Mi, 17.04. 14:00 0
Ortszeit Schneehöhe (cm)
Fr, 19.04. 10:00 0
Fr, 19.04. 9:50 0
Fr, 19.04. 9:40 -
Fr, 19.04. 9:30 0
Fr, 19.04. 9:20 0
Fr, 19.04. 9:10 -
Fr, 19.04. 9:00 0
Fr, 19.04. 8:30 0
Fr, 19.04. 8:00 0
Fr, 19.04. 7:30 0
Fr, 19.04. 7:00 0
Link zu dieser Seite / Seite empfehlen

Das Wetter in ...